createdAt,value
2023-03-04T00:02:07.982Z,102760.84
2023-03-04T00:04:34.376Z,102757.31
2023-03-04T00:07:00.826Z,102760.06
2023-03-04T00:09:27.331Z,102759.22
2023-03-04T00:11:53.828Z,102764.59
2023-03-04T00:14:20.445Z,102756.56
2023-03-04T00:16:48.718Z,102752.13
2023-03-04T00:19:15.202Z,102749.50
2023-03-04T00:21:41.680Z,102753.09
2023-03-04T00:24:08.177Z,102755.81
2023-03-04T00:26:34.580Z,102755.75
2023-03-04T00:29:01.091Z,102759.28
2023-03-04T00:31:27.598Z,102754.00
2023-03-04T00:33:54.065Z,102754.00
2023-03-04T00:36:20.450Z,102751.34
2023-03-04T00:38:46.889Z,102748.66
2023-03-04T00:41:13.304Z,102752.19
2023-03-04T00:43:39.774Z,102753.00
2023-03-04T00:46:07.070Z,102753.00
2023-03-04T00:48:33.536Z,102751.28
2023-03-04T00:51:00.023Z,102748.59
2023-03-04T00:53:26.590Z,102753.94
2023-03-04T00:55:53.042Z,102751.25
2023-03-04T00:58:19.483Z,102754.78
2023-03-04T01:00:45.999Z,102752.13
2023-03-04T01:03:12.438Z,102753.06
2023-03-04T01:05:38.999Z,102754.88
2023-03-04T01:08:05.994Z,102750.38
2023-03-04T01:10:32.644Z,102753.00
2023-03-04T01:12:59.328Z,102754.78
2023-03-04T01:15:25.770Z,102757.41
2023-03-04T01:17:52.294Z,102756.53
2023-03-04T01:20:19.311Z,102752.06
2023-03-04T01:22:45.849Z,102754.78
2023-03-04T01:25:12.737Z,102748.56
2023-03-04T01:27:39.224Z,102751.19
2023-03-04T01:30:06.669Z,102737.88
2023-03-04T01:32:33.161Z,102751.28
2023-03-04T01:34:59.653Z,102740.59
2023-03-04T01:37:26.153Z,102745.03
2023-03-04T01:39:52.535Z,102736.03
2023-03-04T01:42:21.523Z,102740.47
2023-03-04T01:44:49.803Z,102728.81
2023-03-04T01:47:17.231Z,102728.88
2023-03-04T01:49:43.851Z,102725.28
2023-03-04T01:52:14.442Z,102723.50
2023-03-04T01:54:41.732Z,102727.09
2023-03-04T01:57:20.806Z,102711.94
2023-03-04T01:59:48.162Z,102712.81
2023-03-04T02:02:15.160Z,102716.38
2023-03-04T02:04:42.799Z,102725.28
2023-03-04T02:07:09.410Z,102710.13
2023-03-04T02:09:36.237Z,102701.22
2023-03-04T02:12:03.099Z,102702.97
2023-03-04T02:14:29.650Z,102696.75
2023-03-04T02:16:56.415Z,102693.22
2023-03-04T02:19:50.920Z,102691.47
2023-03-04T02:22:17.348Z,102690.59
2023-03-04T02:24:49.065Z,102686.09
2023-03-04T02:27:15.784Z,102688.72
2023-03-04T02:29:42.242Z,102691.47
2023-03-04T02:32:11.361Z,102693.28
2023-03-04T02:34:39.343Z,102696.03
2023-03-04T02:37:07.099Z,102675.50
2023-03-04T02:39:41.743Z,102673.66
2023-03-04T02:42:08.508Z,102675.47
2023-03-04T02:44:46.210Z,102679.00
2023-03-04T02:47:14.740Z,102674.53
2023-03-04T02:49:41.701Z,102676.28
2023-03-04T02:52:19.226Z,102664.69
2023-03-04T02:54:46.317Z,102668.25
2023-03-04T02:57:14.221Z,102665.56
2023-03-04T02:59:41.617Z,102656.66
2023-03-04T03:02:08.849Z,102659.34
2023-03-04T03:04:38.022Z,102653.13
2023-03-04T03:07:04.560Z,102653.16
2023-03-04T03:09:30.934Z,102655.84
2023-03-04T03:11:57.390Z,102652.22
2023-03-04T03:14:23.817Z,102645.94
2023-03-04T03:16:50.254Z,102650.44
2023-03-04T03:19:16.659Z,102654.03
2023-03-04T03:21:43.051Z,102645.13
2023-03-04T03:24:09.558Z,102645.16
2023-03-04T03:26:36.210Z,102649.56
2023-03-04T03:29:02.633Z,102648.72
2023-03-04T03:31:29.463Z,102640.69
2023-03-04T03:33:55.944Z,102638.91
2023-03-04T03:36:22.387Z,102641.53
2023-03-04T03:38:48.818Z,102642.41
2023-03-04T03:41:15.254Z,102633.47
2023-03-04T03:43:41.675Z,102633.44
2023-03-04T03:46:08.193Z,102636.16
2023-03-04T03:48:34.691Z,102643.28
2023-03-04T03:51:01.652Z,102630.81
2023-03-04T03:53:28.101Z,102642.41
2023-03-04T03:55:54.482Z,102638.84
2023-03-04T03:58:20.968Z,102635.28
2023-03-04T04:00:47.454Z,102638.84
2023-03-04T04:03:17.692Z,102635.25
2023-03-04T04:05:44.177Z,102636.16
2023-03-04T04:08:14.732Z,102636.16
2023-03-04T04:10:42.086Z,102629.00
2023-03-04T04:13:08.750Z,102625.38
2023-03-04T04:15:36.597Z,102629.84
2023-03-04T04:18:03.021Z,102625.38
2023-03-04T04:20:29.404Z,102630.75
2023-03-04T04:22:55.853Z,102632.50
2023-03-04T04:25:22.304Z,102628.03
2023-03-04T04:27:48.743Z,102623.56
2023-03-04T04:30:15.529Z,102618.22
2023-03-04T04:32:42.115Z,102623.56
2023-03-04T04:35:08.722Z,102627.03
2023-03-04T04:37:35.223Z,102621.66
2023-03-04T04:40:02.000Z,102630.53
2023-03-04T04:42:28.427Z,102623.34
2023-03-04T04:44:54.899Z,102625.97
2023-03-04T04:47:21.390Z,102617.16
2023-03-04T04:49:47.867Z,102617.19
2023-03-04T04:52:14.368Z,102625.25
2023-03-04T04:54:40.861Z,102621.69
2023-03-04T04:57:07.265Z,102617.22
2023-03-04T04:59:33.680Z,102618.13
2023-03-04T05:02:00.126Z,102626.22
2023-03-04T05:04:26.701Z,102623.56
2023-03-04T05:06:53.111Z,102630.69
2023-03-04T05:09:20.883Z,102634.25
2023-03-04T05:11:47.287Z,102625.38
2023-03-04T05:14:13.754Z,102628.22
2023-03-04T05:16:40.136Z,102622.00
2023-03-04T05:19:06.998Z,102633.59
2023-03-04T05:21:33.462Z,102636.25
2023-03-04T05:23:59.913Z,102631.91
2023-03-04T05:26:26.440Z,102627.53
2023-03-04T05:28:52.828Z,102624.06
2023-03-04T05:31:19.307Z,102623.22
2023-03-04T05:33:45.716Z,102625.91
2023-03-04T05:36:12.173Z,102625.09
2023-03-04T05:38:38.624Z,102626.03
2023-03-04T05:41:07.253Z,102628.78
2023-03-04T05:43:35.918Z,102628.84
2023-03-04T05:46:04.287Z,102624.38
2023-03-04T05:48:31.021Z,102624.38
2023-03-04T05:50:59.808Z,102614.47
2023-03-04T05:53:26.704Z,102621.53
2023-03-04T05:55:53.410Z,102619.72
2023-03-04T05:58:20.590Z,102614.31
2023-03-04T06:00:47.780Z,102611.59
2023-03-04T06:03:20.454Z,102609.81
2023-03-04T06:05:49.630Z,102613.34
2023-03-04T06:08:16.129Z,102608.88
2023-03-04T06:10:42.806Z,102614.22
2023-03-04T06:13:09.955Z,102619.50
2023-03-04T06:15:36.999Z,102617.69
2023-03-04T06:18:03.914Z,102618.47
2023-03-04T06:20:30.571Z,102630.03
2023-03-04T06:22:57.254Z,102626.59
2023-03-04T06:25:24.598Z,102617.78
2023-03-04T06:27:51.612Z,102625.00
2023-03-04T06:30:18.989Z,102621.47
2023-03-04T06:32:46.225Z,102627.69
2023-03-04T06:35:14.491Z,102626.75
2023-03-04T06:37:40.893Z,102630.28
2023-03-04T06:40:07.850Z,102624.97
2023-03-04T06:42:35.652Z,102622.41
2023-03-04T06:45:03.723Z,102628.69
2023-03-04T06:47:30.588Z,102624.25
2023-03-04T06:49:56.996Z,102625.09
2023-03-04T06:52:23.607Z,102627.72
2023-03-04T06:54:50.110Z,102633.91
2023-03-04T06:57:16.683Z,102624.88
2023-03-04T06:59:43.127Z,102637.38
2023-03-04T07:02:12.031Z,102647.06
2023-03-04T07:04:38.897Z,102641.63
2023-03-04T07:07:05.487Z,102648.63
2023-03-04T07:09:31.859Z,102653.97
2023-03-04T07:11:58.412Z,102652.97
2023-03-04T07:14:24.948Z,102651.09
2023-03-04T07:16:51.398Z,102659.03
2023-03-04T07:19:17.810Z,102658.97
2023-03-04T07:21:44.244Z,102653.69
2023-03-04T07:24:10.639Z,102667.97
2023-03-04T07:26:38.172Z,102654.41
2023-03-04T07:29:05.283Z,102658.84
2023-03-04T07:31:34.121Z,102652.47
2023-03-04T07:34:06.248Z,102661.19
2023-03-04T07:36:35.513Z,102663.81
2023-03-04T07:39:02.257Z,102662.97
2023-03-04T07:41:30.030Z,102662.03
2023-03-04T07:43:58.052Z,102666.41
2023-03-04T07:46:25.117Z,102659.94
2023-03-04T07:48:51.595Z,102654.03
2023-03-04T07:51:20.938Z,102660.34
2023-03-04T07:53:52.629Z,102661.47
2023-03-04T07:56:24.976Z,102663.28
2023-03-04T07:58:56.187Z,102664.94
2023-03-04T08:01:28.535Z,102658.59
2023-03-04T08:03:55.230Z,102669.38
2023-03-04T08:06:22.989Z,102665.88
2023-03-04T08:08:55.053Z,102661.31
2023-03-04T08:11:21.726Z,102677.25
2023-03-04T08:13:48.890Z,102669.84
2023-03-04T08:16:17.954Z,102671.13
2023-03-04T08:18:45.955Z,102670.91
2023-03-04T08:21:13.165Z,102664.25
2023-03-04T08:23:42.416Z,102671.66
2023-03-04T08:26:12.565Z,102671.03
2023-03-04T08:28:39.923Z,102657.59
2023-03-04T08:31:06.720Z,102671.59
2023-03-04T08:33:34.324Z,102677.59
2023-03-04T08:36:00.796Z,102665.78
2023-03-04T08:38:27.259Z,102667.72
2023-03-04T08:40:55.724Z,102665.91
2023-03-04T08:43:23.862Z,102671.16
2023-03-04T08:45:50.870Z,102662.69
2023-03-04T08:48:18.243Z,102663.31
2023-03-04T08:50:46.533Z,102659.72
2023-03-04T08:53:13.920Z,102668.91
2023-03-04T08:55:41.302Z,102656.47
2023-03-04T08:58:08.401Z,102670.22
2023-03-04T09:00:36.317Z,102669.34
2023-03-04T09:03:03.990Z,102670.78
2023-03-04T09:05:31.961Z,102668.78
2023-03-04T09:07:58.585Z,102659.44
2023-03-04T09:10:25.584Z,102672.88
2023-03-04T09:12:52.084Z,102657.88
2023-03-04T09:15:18.948Z,102660.91
2023-03-04T09:17:45.623Z,102666.84
2023-03-04T09:20:13.142Z,102663.09
2023-03-04T09:22:40.549Z,102660.44
2023-03-04T09:25:11.628Z,102661.75
2023-03-04T09:27:39.258Z,102663.03
2023-03-04T09:30:06.353Z,102669.22
2023-03-04T09:32:32.901Z,102665.97
2023-03-04T09:34:59.512Z,102672.38
2023-03-04T09:37:25.960Z,102673.97
2023-03-04T09:39:52.357Z,102678.34
2023-03-04T09:42:28.402Z,102671.59
2023-03-04T09:44:55.772Z,102668.81
2023-03-04T09:47:23.905Z,102681.16
2023-03-04T09:49:57.727Z,102670.69
2023-03-04T09:52:36.375Z,102670.38
2023-03-04T09:55:23.973Z,102660.63
2023-03-04T09:58:02.754Z,102661.69
2023-03-04T10:00:43.471Z,102669.38
2023-03-04T10:03:09.998Z,102667.31
2023-03-04T10:06:16.192Z,102666.75
2023-03-04T10:09:04.365Z,102658.78
2023-03-04T10:11:46.058Z,102656.00
2023-03-04T10:14:33.017Z,102656.66
2023-03-04T10:17:22.365Z,102661.63
2023-03-04T10:20:18.521Z,102655.19
2023-03-04T10:22:57.983Z,102645.09
2023-03-04T10:25:32.710Z,102650.03
2023-03-04T10:28:17.776Z,102671.13
2023-03-04T10:30:48.307Z,102660.94
2023-03-04T10:33:19.649Z,102659.34
2023-03-04T10:35:53.192Z,102671.66
2023-03-04T10:38:21.723Z,102665.72
2023-03-04T10:40:48.386Z,102667.16
2023-03-04T10:43:20.016Z,102671.56
2023-03-04T10:45:47.478Z,102662.84
2023-03-04T10:48:31.819Z,102665.97
2023-03-04T10:51:23.244Z,102656.00
2023-03-04T10:53:56.161Z,102653.47
2023-03-04T10:56:38.150Z,102651.06
2023-03-04T10:59:32.317Z,102655.09
2023-03-04T11:02:00.951Z,102650.53
2023-03-04T11:04:32.769Z,102642.38
2023-03-04T11:06:59.193Z,102653.47
2023-03-04T11:09:28.571Z,102649.72
2023-03-04T11:11:58.953Z,102641.44
2023-03-04T11:14:31.083Z,102646.72
2023-03-04T11:17:03.514Z,102650.53
2023-03-04T11:19:39.180Z,102659.50
2023-03-04T11:22:06.469Z,102655.31
2023-03-04T11:24:36.990Z,102649.72
2023-03-04T11:27:29.085Z,102654.53
2023-03-04T11:30:01.622Z,102641.22
2023-03-04T11:32:34.548Z,102644.56
2023-03-04T11:35:22.382Z,102643.03
2023-03-04T11:38:18.289Z,102642.78
2023-03-04T11:40:51.471Z,102640.16
2023-03-04T11:43:25.026Z,102644.91
2023-03-04T11:46:00.357Z,102638.72
2023-03-04T11:48:47.897Z,102637.19
2023-03-04T11:52:06.944Z,102640.94
2023-03-04T11:54:51.632Z,102649.91
2023-03-04T11:57:55.621Z,102644.53
2023-03-04T12:00:51.285Z,102640.41
2023-03-04T12:03:26.593Z,102636.06
2023-03-04T12:06:14.835Z,102638.00
2023-03-04T12:08:58.361Z,102632.41
2023-03-04T12:11:40.317Z,102632.06
2023-03-04T12:14:23.163Z,102627.00
2023-03-04T12:17:04.115Z,102623.41
2023-03-04T12:19:41.508Z,102628.31
2023-03-04T12:22:26.428Z,102621.66
2023-03-04T12:25:19.243Z,102615.50
2023-03-04T12:28:03.790Z,102602.97
2023-03-04T12:30:45.528Z,102612.63
2023-03-04T12:33:35.557Z,102607.34
2023-03-04T12:36:26.004Z,102602.22
2023-03-04T12:38:55.382Z,102600.25
2023-03-04T12:41:53.632Z,102600.13
2023-03-04T12:44:21.566Z,102599.44
2023-03-04T12:47:15.344Z,102594.56
2023-03-04T12:49:47.390Z,102597.34
2023-03-04T12:52:29.099Z,102601.13
2023-03-04T12:55:05.081Z,102594.22
2023-03-04T12:57:33.236Z,102589.97
2023-03-04T13:00:30.604Z,102588.50
2023-03-04T13:03:21.930Z,102589.69
2023-03-04T13:06:05.691Z,102588.84
2023-03-04T13:08:37.943Z,102577.66
2023-03-04T13:11:27.274Z,102578.72
2023-03-04T13:14:15.122Z,102587.00
2023-03-04T13:17:18.262Z,102578.69
2023-03-04T13:19:53.794Z,102573.53
2023-03-04T13:22:32.109Z,102567.13
2023-03-04T13:25:02.326Z,102565.59
2023-03-04T13:27:50.235Z,102571.13
2023-03-04T13:31:02.880Z,102558.00
2023-03-04T13:33:35.528Z,102563.75
2023-03-04T13:36:25.853Z,102564.72
2023-03-04T13:39:25.387Z,102568.66
2023-03-04T13:41:53.857Z,102562.88
2023-03-04T13:44:44.925Z,102561.88
2023-03-04T13:47:18.664Z,102558.69
2023-03-04T13:49:45.288Z,102554.00
2023-03-04T13:52:41.442Z,102549.84
2023-03-04T13:55:40.331Z,102549.78
2023-03-04T13:58:27.575Z,102549.56
2023-03-04T14:00:56.469Z,102553.59
2023-03-04T14:03:31.480Z,102549.72
2023-03-04T14:06:18.452Z,102543.00
2023-03-04T14:08:46.427Z,102527.50
2023-03-04T14:11:15.492Z,102536.50
2023-03-04T14:13:42.623Z,102529.09
2023-03-04T14:16:09.256Z,102531.97
2023-03-04T14:18:36.820Z,102526.44
2023-03-04T14:21:03.502Z,102528.34
2023-03-04T14:23:33.051Z,102523.31
2023-03-04T14:26:14.244Z,102511.63
2023-03-04T14:28:59.805Z,102504.84
2023-03-04T14:31:30.213Z,102503.81
2023-03-04T14:34:02.352Z,102510.34
2023-03-04T14:36:32.758Z,102496.59
2023-03-04T14:39:02.680Z,102500.69
2023-03-04T14:41:39.281Z,102499.34
2023-03-04T14:44:36.109Z,102505.97
2023-03-04T14:47:15.021Z,102501.03
2023-03-04T14:49:41.612Z,102502.19
2023-03-04T14:52:39.838Z,102495.81
2023-03-04T14:55:15.286Z,102507.03
2023-03-04T14:57:43.970Z,102502.28
2023-03-04T15:00:19.761Z,102496.28
2023-03-04T15:02:50.333Z,102496.91
2023-03-04T15:05:26.253Z,102499.88
2023-03-04T15:08:00.345Z,102495.56
2023-03-04T15:10:35.990Z,102507.63
2023-03-04T15:13:06.102Z,102498.41
2023-03-04T15:15:43.057Z,102508.50
2023-03-04T15:18:25.991Z,102503.47
2023-03-04T15:21:01.482Z,102505.16
2023-03-04T15:23:30.398Z,102502.91
2023-03-04T15:25:59.795Z,102505.09
2023-03-04T15:28:32.252Z,102508.03
2023-03-04T15:30:58.910Z,102505.44
2023-03-04T15:33:25.835Z,102503.81
2023-03-04T15:36:01.639Z,102498.38
2023-03-04T15:38:29.269Z,102506.38
2023-03-04T15:40:58.326Z,102502.03
2023-03-04T15:43:25.356Z,102506.69
2023-03-04T15:45:52.697Z,102497.75
2023-03-04T15:48:19.624Z,102488.94
2023-03-04T15:50:51.216Z,102488.94
2023-03-04T15:53:27.257Z,102489.91
2023-03-04T15:55:54.191Z,102474.59
2023-03-04T15:58:20.867Z,102482.72
2023-03-04T16:00:47.350Z,102485.47
2023-03-04T16:03:16.420Z,102481.78
2023-03-04T16:05:46.391Z,102467.53
2023-03-04T16:08:15.597Z,102475.59
2023-03-04T16:10:43.883Z,102472.88
2023-03-04T16:13:22.029Z,102465.78
2023-03-04T16:15:49.108Z,102476.59
2023-03-04T16:18:16.179Z,102463.28
2023-03-04T16:20:45.984Z,102463.44
2023-03-04T16:23:16.622Z,102474.41
2023-03-04T16:25:45.061Z,102470.19
2023-03-04T16:28:12.760Z,102461.31
2023-03-04T16:30:39.999Z,102466.75
2023-03-04T16:33:06.882Z,102463.28
2023-03-04T16:35:36.094Z,102462.41
2023-03-04T16:38:02.927Z,102465.06
2023-03-04T16:40:30.896Z,102457.97
2023-03-04T16:42:57.380Z,102463.34
2023-03-04T16:45:26.422Z,102452.63
2023-03-04T16:47:53.356Z,102462.50
2023-03-04T16:50:24.858Z,102452.66
2023-03-04T16:52:51.300Z,102459.81
2023-03-04T16:55:22.444Z,102458.97
2023-03-04T16:57:49.126Z,102451.84
2023-03-04T17:00:18.133Z,102449.22
2023-03-04T17:02:46.221Z,102458.16
2023-03-04T17:05:17.500Z,102445.72
2023-03-04T17:07:44.047Z,102460.00
2023-03-04T17:10:16.851Z,102461.81
2023-03-04T17:12:43.870Z,102469.97
2023-03-04T17:15:12.721Z,102469.25
2023-03-04T17:17:40.140Z,102469.47
2023-03-04T17:20:08.717Z,102483.88
2023-03-04T17:22:35.640Z,102478.69
2023-03-04T17:25:05.472Z,102473.44
2023-03-04T17:27:32.248Z,102479.03
2023-03-04T17:29:59.559Z,102483.56
2023-03-04T17:32:29.480Z,102486.34
2023-03-04T17:34:55.911Z,102488.22
2023-03-04T17:37:23.158Z,102482.06
2023-03-04T17:39:49.749Z,102478.56
2023-03-04T17:42:16.570Z,102490.16
2023-03-04T17:44:43.083Z,102488.31
2023-03-04T17:47:09.650Z,102491.00
2023-03-04T17:49:36.176Z,102502.63
2023-03-04T17:52:04.065Z,102506.19
2023-03-04T17:54:30.880Z,102491.94
2023-03-04T17:56:57.456Z,102490.16
2023-03-04T17:59:24.628Z,102497.31
2023-03-04T18:01:54.104Z,102493.69
2023-03-04T18:04:21.479Z,102500.84
2023-03-04T18:06:48.012Z,102490.13
2023-03-04T18:09:14.664Z,102507.94
2023-03-04T18:11:41.935Z,102503.47
2023-03-04T18:14:08.537Z,102504.41
2023-03-04T18:16:35.002Z,102504.47
2023-03-04T18:19:01.853Z,102501.84
2023-03-04T18:21:29.433Z,102498.41
2023-03-04T18:23:56.768Z,102504.84
2023-03-04T18:26:23.871Z,102501.34
2023-03-04T18:28:51.741Z,102489.84
2023-03-04T18:31:23.383Z,102493.47
2023-03-04T18:33:50.231Z,102493.53
2023-03-04T18:36:16.960Z,102485.53
2023-03-04T18:38:43.754Z,102481.03
2023-03-04T18:41:13.100Z,102480.09
2023-03-04T18:43:39.839Z,102476.53
2023-03-04T18:46:17.333Z,102484.50
2023-03-04T18:48:46.650Z,102490.69
2023-03-04T18:51:13.035Z,102488.03
2023-03-04T18:53:39.498Z,102491.75
2023-03-04T18:56:16.710Z,102488.38
2023-03-04T18:58:45.888Z,102494.78
2023-03-04T19:01:13.942Z,102495.72
2023-03-04T19:03:41.696Z,102490.44
2023-03-04T19:06:08.631Z,102496.66
2023-03-04T19:08:35.464Z,102487.78
2023-03-04T19:11:01.978Z,102480.63
2023-03-04T19:13:30.662Z,102482.44
2023-03-04T19:15:57.320Z,102476.22
2023-03-04T19:18:23.886Z,102478.97
2023-03-04T19:20:50.340Z,102482.56
2023-03-04T19:23:17.567Z,102474.53
2023-03-04T19:25:44.411Z,102471.81
2023-03-04T19:28:11.413Z,102468.25
2023-03-04T19:30:39.780Z,102474.47
2023-03-04T19:33:06.667Z,102456.66
2023-03-04T19:35:33.481Z,102470.00
2023-03-04T19:38:01.045Z,102465.59
2023-03-04T19:40:28.361Z,102470.94
2023-03-04T19:42:56.661Z,102475.41
2023-03-04T19:45:23.572Z,102473.69
2023-03-04T19:47:49.958Z,102477.22
2023-03-04T19:50:17.151Z,102476.34
2023-03-04T19:52:43.877Z,102465.59
2023-03-04T19:55:12.766Z,102472.72
2023-03-04T19:57:40.430Z,102470.06
2023-03-04T20:00:07.687Z,102458.50
2023-03-04T20:02:34.181Z,102463.94
2023-03-04T20:05:00.598Z,102466.66
2023-03-04T20:07:27.110Z,102454.31
2023-03-04T20:09:55.906Z,102451.75
2023-03-04T20:12:22.859Z,102455.34
2023-03-04T20:14:51.144Z,102454.47
2023-03-04T20:17:17.962Z,102457.13
2023-03-04T20:19:44.570Z,102450.88
2023-03-04T20:22:11.236Z,102446.41
2023-03-04T20:24:37.652Z,102449.00
2023-03-04T20:27:04.186Z,102447.25
2023-03-04T20:29:30.614Z,102454.41
2023-03-04T20:31:58.024Z,102449.13
2023-03-04T20:34:26.681Z,102447.38
2023-03-04T20:36:53.105Z,102450.94
2023-03-04T20:39:28.640Z,102452.78
2023-03-04T20:41:57.198Z,102448.34
2023-03-04T20:44:23.992Z,102443.94
2023-03-04T20:46:50.624Z,102443.06
2023-03-04T20:49:28.201Z,102448.34
2023-03-04T20:51:57.953Z,102446.56
2023-03-04T20:54:24.403Z,102458.06
2023-03-04T20:56:51.420Z,102456.22
2023-03-04T20:59:18.354Z,102448.19
2023-03-04T21:01:47.676Z,102449.88
2023-03-04T21:04:14.750Z,102443.66
2023-03-04T21:06:41.280Z,102441.06
2023-03-04T21:09:11.551Z,102435.84
2023-03-04T21:11:40.704Z,102437.69
2023-03-04T21:14:14.878Z,102445.84
2023-03-04T21:16:42.359Z,102438.78
2023-03-04T21:19:17.578Z,102437.97
2023-03-04T21:21:44.236Z,102435.38
2023-03-04T21:24:14.740Z,102435.38
2023-03-04T21:26:45.089Z,102434.53
2023-03-04T21:29:12.373Z,102428.41
2023-03-04T21:31:42.094Z,102431.16
2023-03-04T21:34:19.672Z,102428.53
2023-03-04T21:36:46.290Z,102427.66
2023-03-04T21:39:18.798Z,102425.91
2023-03-04T21:41:45.871Z,102425.00
2023-03-04T21:44:22.662Z,102421.50
2023-03-04T21:46:56.937Z,102421.50
2023-03-04T21:49:23.484Z,102413.50
2023-03-04T21:51:49.987Z,102426.81
2023-03-04T21:54:16.473Z,102416.16
2023-03-04T21:56:43.088Z,102417.03
2023-03-04T21:59:13.293Z,102412.56
2023-03-04T22:01:40.625Z,102409.91
2023-03-04T22:04:07.284Z,102409.91
2023-03-04T22:06:34.405Z,102405.44
2023-03-04T22:09:02.333Z,102402.78
2023-03-04T22:11:30.067Z,102402.78
2023-03-04T22:13:58.375Z,102402.69
2023-03-04T22:16:25.653Z,102391.97
2023-03-04T22:18:52.907Z,102395.44
2023-03-04T22:21:21.086Z,102394.50
2023-03-04T22:23:48.119Z,102389.13
2023-03-04T22:26:26.817Z,102387.31
2023-03-04T22:28:53.352Z,102380.16
2023-03-04T22:31:29.991Z,102376.50
2023-03-04T22:33:57.371Z,102379.19
2023-03-04T22:36:23.934Z,102377.38
2023-03-04T22:38:50.392Z,102368.50
2023-03-04T22:41:18.995Z,102367.63
2023-03-04T22:43:46.191Z,102372.09
2023-03-04T22:46:22.505Z,102364.13
2023-03-04T22:48:50.084Z,102360.63
2023-03-04T22:51:17.056Z,102357.94
2023-03-04T22:53:44.097Z,102358.75
2023-03-04T22:56:12.594Z,102360.47
2023-03-04T22:58:39.594Z,102350.59
2023-03-04T23:01:06.802Z,102352.34
2023-03-04T23:03:34.067Z,102348.72
2023-03-04T23:06:01.683Z,102348.72
2023-03-04T23:08:28.524Z,102350.41
2023-03-04T23:10:54.971Z,102341.50
2023-03-04T23:13:21.476Z,102349.41
2023-03-04T23:15:47.894Z,102340.50
2023-03-04T23:18:14.384Z,102337.78
2023-03-04T23:20:43.192Z,102334.19
2023-03-04T23:23:10.726Z,102328.03
2023-03-04T23:25:38.695Z,102329.03
2023-03-04T23:28:05.230Z,102325.50
2023-03-04T23:30:34.589Z,102327.31
2023-03-04T23:33:01.122Z,102326.38
2023-03-04T23:35:27.588Z,102320.09
2023-03-04T23:37:54.098Z,102316.56
2023-03-04T23:40:20.507Z,102312.09
2023-03-04T23:42:46.888Z,102307.63
2023-03-04T23:45:13.425Z,102308.56
2023-03-04T23:47:39.877Z,102309.44
2023-03-04T23:50:08.788Z,102307.69
2023-03-04T23:52:35.434Z,102301.47
2023-03-04T23:55:01.937Z,102302.34
2023-03-04T23:57:28.504Z,102297.88
2023-03-04T23:59:54.936Z,102292.53
